Troicko-Pecherskoe, Russia
Current Conditions -  °F | °C
As of 11:30 PM on Saturday 20 Dec 2014 (Local Time) from UUYY Reporting Station
Snow Showers Snow Showers  
Wind Chill: 23°   Ceiling: 2000
Heat Index: 28°   Visibility: 2.5mi
Dew Point: 27°   Wind: 4mph
Humidity: 93%   Direction: 190°S
Pressure: 29.23"   Gusts: NA
Location:  62.7°N, 56.2°E
Report Text: UUYY 202030Z 19002MPS 4100 -SHSN SCT010 BKN020CB OVC066 M02/M03 Q0990 TEMPO 0500 +SHSN 19490535 RMK QFE734/0978
Loading
Personal Weather Stations






























Interactive Weather Map New forecast layout! Learn more

10-Day Weather Forecast

Advertisements
Track Severe Weather on mobile